sensor_id;sensor_type;location;lat;lon;timestamp;temperature;humidity
51825;DHT22;37879;52.986;6.282;2023-01-25T00:02:00;0.60;99.90
51825;DHT22;37879;52.986;6.282;2023-01-25T00:04:26;0.70;99.90
51825;DHT22;37879;52.986;6.282;2023-01-25T00:06:52;0.60;99.90
51825;DHT22;37879;52.986;6.282;2023-01-25T00:09:18;0.70;99.90
51825;DHT22;37879;52.986;6.282;2023-01-25T00:11:44;0.60;99.90
51825;DHT22;37879;52.986;6.282;2023-01-25T00:14:14;0.60;99.90
51825;DHT22;37879;52.986;6.282;2023-01-25T00:16:40;0.70;99.90
51825;DHT22;37879;52.986;6.282;2023-01-25T00:19:07;0.70;99.90
51825;DHT22;37879;52.986;6.282;2023-01-25T00:21:33;0.70;99.90
51825;DHT22;37879;52.986;6.282;2023-01-25T00:24:00;0.70;99.90
51825;DHT22;37879;52.986;6.282;2023-01-25T00:26:28;0.80;99.90
51825;DHT22;37879;52.986;6.282;2023-01-25T00:28:54;0.80;99.90
51825;DHT22;37879;52.986;6.282;2023-01-25T00:35:02;0.80;99.90
51825;DHT22;37879;52.986;6.282;2023-01-25T00:39:54;0.80;99.90
51825;DHT22;37879;52.986;6.282;2023-01-25T00:42:20;0.80;99.90
51825;DHT22;37879;52.986;6.282;2023-01-25T00:44:47;0.80;99.90
51825;DHT22;37879;52.986;6.282;2023-01-25T00:47:13;0.80;99.90
51825;DHT22;37879;52.986;6.282;2023-01-25T00:49:40;0.80;99.90
51825;DHT22;37879;52.986;6.282;2023-01-25T00:52:07;0.80;99.90
51825;DHT22;37879;52.986;6.282;2023-01-25T00:54:33;0.80;99.90
51825;DHT22;37879;52.986;6.282;2023-01-25T00:56:59;0.80;99.90
51825;DHT22;37879;52.986;6.282;2023-01-25T00:59:24;0.80;99.90
51825;DHT22;37879;52.986;6.282;2023-01-25T01:01:51;0.80;99.90
51825;DHT22;37879;52.986;6.282;2023-01-25T01:04:19;0.80;99.90
51825;DHT22;37879;52.986;6.282;2023-01-25T01:06:44;0.80;99.90
51825;DHT22;37879;52.986;6.282;2023-01-25T01:09:16;0.70;99.90
51825;DHT22;37879;52.986;6.282;2023-01-25T01:11:42;0.90;99.90
51825;DHT22;37879;52.986;6.282;2023-01-25T01:14:08;0.70;99.90
51825;DHT22;37879;52.986;6.282;2023-01-25T01:16:34;0.70;99.90
51825;DHT22;37879;52.986;6.282;2023-01-25T01:19:00;0.60;99.90
51825;DHT22;37879;52.986;6.282;2023-01-25T01:21:26;0.50;99.90
51825;DHT22;37879;52.986;6.282;2023-01-25T01:23:53;0.50;99.90
51825;DHT22;37879;52.986;6.282;2023-01-25T01:26:19;0.50;99.90
51825;DHT22;37879;52.986;6.282;2023-01-25T01:28:45;0.50;99.90
51825;DHT22;37879;52.986;6.282;2023-01-25T01:31:16;0.40;99.90
51825;DHT22;37879;52.986;6.282;2023-01-25T01:33:42;0.50;99.90
51825;DHT22;37879;52.986;6.282;2023-01-25T01:36:10;0.50;99.90
51825;DHT22;37879;52.986;6.282;2023-01-25T01:38:36;0.50;99.90
51825;DHT22;37879;52.986;6.282;2023-01-25T01:41:02;0.50;99.90
51825;DHT22;37879;52.986;6.282;2023-01-25T01:43:28;0.40;99.90
51825;DHT22;37879;52.986;6.282;2023-01-25T01:46:00;0.00;99.90
51825;DHT22;37879;52.986;6.282;2023-01-25T01:51:04;0.40;99.90
51825;DHT22;37879;52.986;6.282;2023-01-25T01:53:33;0.40;99.90
51825;DHT22;37879;52.986;6.282;2023-01-25T01:56:02;0.40;99.90
51825;DHT22;37879;52.986;6.282;2023-01-25T01:58:30;0.40;99.90
51825;DHT22;37879;52.986;6.282;2023-01-25T02:00:56;0.40;99.90
51825;DHT22;37879;52.986;6.282;2023-01-25T02:03:22;0.40;99.90
51825;DHT22;37879;52.986;6.282;2023-01-25T02:08:20;0.50;99.90
51825;DHT22;37879;52.986;6.282;2023-01-25T02:10:47;0.40;99.90
51825;DHT22;37879;52.986;6.282;2023-01-25T02:13:14;0.40;99.90
51825;DHT22;37879;52.986;6.282;2023-01-25T02:15:46;0.30;99.90
51825;DHT22;37879;52.986;6.282;2023-01-25T02:18:12;0.30;99.90
51825;DHT22;37879;52.986;6.282;2023-01-25T02:20:43;0.20;99.90
51825;DHT22;37879;52.986;6.282;2023-01-25T02:23:31;0.30;99.90
51825;DHT22;37879;52.986;6.282;2023-01-25T02:26:01;0.20;99.90
51825;DHT22;37879;52.986;6.282;2023-01-25T02:28:47;0.20;99.90
51825;DHT22;37879;52.986;6.282;2023-01-25T02:31:15;0.20;99.90
51825;DHT22;37879;52.986;6.282;2023-01-25T02:33:41;0.10;99.90
51825;DHT22;37879;52.986;6.282;2023-01-25T02:38:34;0.10;99.90
51825;DHT22;37879;52.986;6.282;2023-01-25T02:41:11;0.10;99.90
51825;DHT22;37879;52.986;6.282;2023-01-25T02:43:40;-0.10;99.90
51825;DHT22;37879;52.986;6.282;2023-01-25T02:46:24;0.00;99.90
51825;DHT22;37879;52.986;6.282;2023-01-25T02:48:53;0.00;99.90
51825;DHT22;37879;52.986;6.282;2023-01-25T02:51:20;0.00;99.90
51825;DHT22;37879;52.986;6.282;2023-01-25T02:53:46;0.00;99.90
51825;DHT22;37879;52.986;6.282;2023-01-25T02:56:12;0.10;99.90
51825;DHT22;37879;52.986;6.282;2023-01-25T02:58:37;0.00;99.90
51825;DHT22;37879;52.986;6.282;2023-01-25T03:01:03;0.10;99.90
51825;DHT22;37879;52.986;6.282;2023-01-25T03:03:28;0.10;99.90
51825;DHT22;37879;52.986;6.282;2023-01-25T03:05:54;0.20;99.90
51825;DHT22;37879;52.986;6.282;2023-01-25T03:08:20;0.20;99.90
51825;DHT22;37879;52.986;6.282;2023-01-25T03:10:45;0.20;99.90
51825;DHT22;37879;52.986;6.282;2023-01-25T03:13:11;0.20;99.90
51825;DHT22;37879;52.986;6.282;2023-01-25T03:15:36;0.20;99.90
51825;DHT22;37879;52.986;6.282;2023-01-25T03:18:02;0.20;99.90
51825;DHT22;37879;52.986;6.282;2023-01-25T03:20:28;0.10;99.90
51825;DHT22;37879;52.986;6.282;2023-01-25T03:22:54;0.10;99.90
51825;DHT22;37879;52.986;6.282;2023-01-25T03:25:19;0.00;99.90
51825;DHT22;37879;52.986;6.282;2023-01-25T03:27:45;0.00;99.90
51825;DHT22;37879;52.986;6.282;2023-01-25T03:30:11;-0.10;99.90
51825;DHT22;37879;52.986;6.282;2023-01-25T03:32:36;-0.10;99.90
51825;DHT22;37879;52.986;6.282;2023-01-25T03:35:03;-0.10;99.90
51825;DHT22;37879;52.986;6.282;2023-01-25T03:37:28;-0.10;99.90
51825;DHT22;37879;52.986;6.282;2023-01-25T03:39:56;-0.10;99.90
51825;DHT22;37879;52.986;6.282;2023-01-25T03:42:22;0.50;99.90
51825;DHT22;37879;52.986;6.282;2023-01-25T03:44:48;-0.10;99.90
51825;DHT22;37879;52.986;6.282;2023-01-25T03:47:14;-0.10;99.90
51825;DHT22;37879;52.986;6.282;2023-01-25T03:49:40;-0.20;99.90
51825;DHT22;37879;52.986;6.282;2023-01-25T03:52:06;-0.10;99.90
51825;DHT22;37879;52.986;6.282;2023-01-25T03:54:32;-0.20;99.90
51825;DHT22;37879;52.986;6.282;2023-01-25T03:56:58;-0.20;99.90
51825;DHT22;37879;52.986;6.282;2023-01-25T03:59:23;-0.20;99.90
51825;DHT22;37879;52.986;6.282;2023-01-25T04:01:49;-0.20;99.90
51825;DHT22;37879;52.986;6.282;2023-01-25T04:04:15;-0.20;99.90
51825;DHT22;37879;52.986;6.282;2023-01-25T04:06:40;0.40;99.90
51825;DHT22;37879;52.986;6.282;2023-01-25T04:09:06;-0.20;99.90
51825;DHT22;37879;52.986;6.282;2023-01-25T04:11:32;1.10;99.90
51825;DHT22;37879;52.986;6.282;2023-01-25T04:13:58;-0.20;99.90
51825;DHT22;37879;52.986;6.282;2023-01-25T04:16:23;-0.20;99.90
51825;DHT22;37879;52.986;6.282;2023-01-25T04:18:49;-0.30;99.90
51825;DHT22;37879;52.986;6.282;2023-01-25T04:21:15;-0.40;99.90
51825;DHT22;37879;52.986;6.282;2023-01-25T04:23:40;-1.80;99.90
51825;DHT22;37879;52.986;6.282;2023-01-25T04:26:07;-0.40;99.90
51825;DHT22;37879;52.986;6.282;2023-01-25T04:28:34;-0.40;99.90
51825;DHT22;37879;52.986;6.282;2023-01-25T04:31:00;-0.50;99.90
51825;DHT22;37879;52.986;6.282;2023-01-25T04:33:28;-0.50;99.90
51825;DHT22;37879;52.986;6.282;2023-01-25T04:35:54;-0.50;99.90
51825;DHT22;37879;52.986;6.282;2023-01-25T04:38:19;-0.60;99.90
51825;DHT22;37879;52.986;6.282;2023-01-25T04:40:45;-0.20;99.90
51825;DHT22;37879;52.986;6.282;2023-01-25T04:43:15;-0.50;99.90
51825;DHT22;37879;52.986;6.282;2023-01-25T04:45:41;-0.50;99.90
51825;DHT22;37879;52.986;6.282;2023-01-25T04:48:08;-0.50;99.90
51825;DHT22;37879;52.986;6.282;2023-01-25T04:50:38;-0.50;99.90
51825;DHT22;37879;52.986;6.282;2023-01-25T04:53:05;-0.50;99.90
51825;DHT22;37879;52.986;6.282;2023-01-25T04:55:31;-0.40;99.90
51825;DHT22;37879;52.986;6.282;2023-01-25T04:57:58;-0.50;99.90
51825;DHT22;37879;52.986;6.282;2023-01-25T05:00:24;-0.40;99.90
51825;DHT22;37879;52.986;6.282;2023-01-25T05:02:50;-0.30;99.90
51825;DHT22;37879;52.986;6.282;2023-01-25T05:05:16;-0.30;99.90
51825;DHT22;37879;52.986;6.282;2023-01-25T05:07:42;-0.30;99.90
51825;DHT22;37879;52.986;6.282;2023-01-25T05:10:08;-0.30;99.90
51825;DHT22;37879;52.986;6.282;2023-01-25T05:12:34;-0.30;99.90
51825;DHT22;37879;52.986;6.282;2023-01-25T05:14:59;-1.60;99.90
51825;DHT22;37879;52.986;6.282;2023-01-25T05:17:25;-0.30;99.90
51825;DHT22;37879;52.986;6.282;2023-01-25T05:19:51;-0.40;99.90
51825;DHT22;37879;52.986;6.282;2023-01-25T05:22:18;-0.40;99.90
51825;DHT22;37879;52.986;6.282;2023-01-25T05:24:46;-0.40;99.90
51825;DHT22;37879;52.986;6.282;2023-01-25T05:27:14;-0.50;99.90
51825;DHT22;37879;52.986;6.282;2023-01-25T05:29:42;-0.50;99.90
51825;DHT22;37879;52.986;6.282;2023-01-25T05:32:12;-0.50;99.90
51825;DHT22;37879;52.986;6.282;2023-01-25T05:34:38;-0.60;99.90
51825;DHT22;37879;52.986;6.282;2023-01-25T05:37:05;-0.50;99.90
51825;DHT22;37879;52.986;6.282;2023-01-25T05:39:31;-0.60;99.90
51825;DHT22;37879;52.986;6.282;2023-01-25T05:41:56;-0.60;99.90
51825;DHT22;37879;52.986;6.282;2023-01-25T05:44:22;-0.70;99.90
51825;DHT22;37879;52.986;6.282;2023-01-25T05:46:48;-0.70;99.90
51825;DHT22;37879;52.986;6.282;2023-01-25T05:49:15;-0.70;99.90
51825;DHT22;37879;52.986;6.282;2023-01-25T05:51:41;-0.70;99.90
51825;DHT22;37879;52.986;6.282;2023-01-25T05:54:08;-0.70;99.90
51825;DHT22;37879;52.986;6.282;2023-01-25T05:56:36;-0.70;99.90
51825;DHT22;37879;52.986;6.282;2023-01-25T05:59:01;-0.60;99.90
51825;DHT22;37879;52.986;6.282;2023-01-25T06:01:27;-0.60;99.90
51825;DHT22;37879;52.986;6.282;2023-01-25T06:03:53;-0.50;99.90
51825;DHT22;37879;52.986;6.282;2023-01-25T06:06:19;-0.60;99.90
51825;DHT22;37879;52.986;6.282;2023-01-25T06:08:45;-0.90;99.90
51825;DHT22;37879;52.986;6.282;2023-01-25T06:11:13;0.70;99.90
51825;DHT22;37879;52.986;6.282;2023-01-25T06:13:39;-0.90;99.90
51825;DHT22;37879;52.986;6.282;2023-01-25T06:16:06;-0.90;99.90
51825;DHT22;37879;52.986;6.282;2023-01-25T06:18:33;0.60;99.90
51825;DHT22;37879;52.986;6.282;2023-01-25T06:20:59;-0.90;99.90
51825;DHT22;37879;52.986;6.282;2023-01-25T06:23:26;-0.80;99.90
51825;DHT22;37879;52.986;6.282;2023-01-25T06:25:51;-0.80;99.90
51825;DHT22;37879;52.986;6.282;2023-01-25T06:28:20;-0.80;99.90
51825;DHT22;37879;52.986;6.282;2023-01-25T06:30:46;-0.80;99.90
51825;DHT22;37879;52.986;6.282;2023-01-25T06:33:11;-0.90;99.90
51825;DHT22;37879;52.986;6.282;2023-01-25T06:35:37;-0.80;99.90
51825;DHT22;37879;52.986;6.282;2023-01-25T06:38:05;-0.80;99.90
51825;DHT22;37879;52.986;6.282;2023-01-25T06:40:30;-0.70;99.90
51825;DHT22;37879;52.986;6.282;2023-01-25T06:43:08;-0.50;99.90
51825;DHT22;37879;52.986;6.282;2023-01-25T06:45:34;-0.50;99.90
51825;DHT22;37879;52.986;6.282;2023-01-25T06:48:00;-0.70;99.90
51825;DHT22;37879;52.986;6.282;2023-01-25T06:50:26;-0.60;99.90
51825;DHT22;37879;52.986;6.282;2023-01-25T06:52:52;-0.60;99.90
51825;DHT22;37879;52.986;6.282;2023-01-25T06:55:19;-0.60;99.90
51825;DHT22;37879;52.986;6.282;2023-01-25T06:57:45;-0.40;99.90
51825;DHT22;37879;52.986;6.282;2023-01-25T07:00:11;-0.40;99.90
51825;DHT22;37879;52.986;6.282;2023-01-25T07:02:37;-0.50;99.90
51825;DHT22;37879;52.986;6.282;2023-01-25T07:05:03;-0.50;99.90
51825;DHT22;37879;52.986;6.282;2023-01-25T07:07:29;-0.50;99.90
51825;DHT22;37879;52.986;6.282;2023-01-25T07:09:54;-0.50;99.90
51825;DHT22;37879;52.986;6.282;2023-01-25T07:12:20;-0.60;99.90
51825;DHT22;37879;52.986;6.282;2023-01-25T07:14:46;1.10;99.90
51825;DHT22;37879;52.986;6.282;2023-01-25T07:17:14;-0.70;99.90
51825;DHT22;37879;52.986;6.282;2023-01-25T07:19:40;-0.70;99.90
51825;DHT22;37879;52.986;6.282;2023-01-25T07:22:05;-0.70;99.90
51825;DHT22;37879;52.986;6.282;2023-01-25T07:24:31;-0.70;99.90
51825;DHT22;37879;52.986;6.282;2023-01-25T07:26:57;-0.70;99.90
51825;DHT22;37879;52.986;6.282;2023-01-25T07:29:22;-0.70;99.90
51825;DHT22;37879;52.986;6.282;2023-01-25T07:31:48;-0.70;99.90
51825;DHT22;37879;52.986;6.282;2023-01-25T07:34:14;-0.70;99.90
51825;DHT22;37879;52.986;6.282;2023-01-25T07:36:40;-0.80;99.90
51825;DHT22;37879;52.986;6.282;2023-01-25T07:39:09;-0.80;99.90
51825;DHT22;37879;52.986;6.282;2023-01-25T07:41:36;-0.80;99.90
51825;DHT22;37879;52.986;6.282;2023-01-25T07:44:02;-0.80;99.90
51825;DHT22;37879;52.986;6.282;2023-01-25T07:48:54;-0.80;99.90
51825;DHT22;37879;52.986;6.282;2023-01-25T07:51:22;-0.70;99.90
51825;DHT22;37879;52.986;6.282;2023-01-25T07:54:06;-0.70;99.90
51825;DHT22;37879;52.986;6.282;2023-01-25T07:56:34;-0.80;99.90
51825;DHT22;37879;52.986;6.282;2023-01-25T07:59:01;-0.90;99.90
51825;DHT22;37879;52.986;6.282;2023-01-25T08:01:28;-1.00;99.90
51825;DHT22;37879;52.986;6.282;2023-01-25T08:03:55;-1.00;99.90
51825;DHT22;37879;52.986;6.282;2023-01-25T08:06:23;-0.50;99.90
51825;DHT22;37879;52.986;6.282;2023-01-25T08:08:52;-1.10;99.90
51825;DHT22;37879;52.986;6.282;2023-01-25T08:11:22;-1.10;99.90
51825;DHT22;37879;52.986;6.282;2023-01-25T08:13:48;-1.10;99.90
51825;DHT22;37879;52.986;6.282;2023-01-25T08:16:16;-1.10;99.90
51825;DHT22;37879;52.986;6.282;2023-01-25T08:18:45;-1.10;99.90
51825;DHT22;37879;52.986;6.282;2023-01-25T08:21:11;-1.10;99.90
51825;DHT22;37879;52.986;6.282;2023-01-25T08:23:37;-1.10;99.90
51825;DHT22;37879;52.986;6.282;2023-01-25T08:26:08;-0.70;99.90
51825;DHT22;37879;52.986;6.282;2023-01-25T08:28:34;-1.00;99.90
51825;DHT22;37879;52.986;6.282;2023-01-25T08:33:37;-0.90;99.90
51825;DHT22;37879;52.986;6.282;2023-01-25T08:36:04;-0.80;99.90
51825;DHT22;37879;52.986;6.282;2023-01-25T08:38:31;-0.70;99.90
51825;DHT22;37879;52.986;6.282;2023-01-25T08:41:04;-0.70;99.90
51825;DHT22;37879;52.986;6.282;2023-01-25T08:43:30;-0.60;99.90
51825;DHT22;37879;52.986;6.282;2023-01-25T08:45:56;-0.50;99.90
51825;DHT22;37879;52.986;6.282;2023-01-25T08:48:22;-0.40;99.90
51825;DHT22;37879;52.986;6.282;2023-01-25T08:50:48;-0.50;99.90
51825;DHT22;37879;52.986;6.282;2023-01-25T08:53:14;-0.50;99.90
51825;DHT22;37879;52.986;6.282;2023-01-25T08:55:39;0.30;99.90
51825;DHT22;37879;52.986;6.282;2023-01-25T08:58:09;-1.10;99.90
51825;DHT22;37879;52.986;6.282;2023-01-25T09:00:37;-0.70;99.90
51825;DHT22;37879;52.986;6.282;2023-01-25T09:03:03;-0.70;99.90
51825;DHT22;37879;52.986;6.282;2023-01-25T09:05:28;-0.70;99.90
51825;DHT22;37879;52.986;6.282;2023-01-25T09:07:54;-0.70;99.90
51825;DHT22;37879;52.986;6.282;2023-01-25T09:10:20;-0.70;99.90
51825;DHT22;37879;52.986;6.282;2023-01-25T09:12:45;-0.70;99.90
51825;DHT22;37879;52.986;6.282;2023-01-25T09:15:11;-0.70;99.90
51825;DHT22;37879;52.986;6.282;2023-01-25T09:17:36;-0.60;99.90
51825;DHT22;37879;52.986;6.282;2023-01-25T09:20:06;-0.60;99.90
51825;DHT22;37879;52.986;6.282;2023-01-25T09:22:31;-0.60;99.90
51825;DHT22;37879;52.986;6.282;2023-01-25T09:24:57;0.40;99.90
51825;DHT22;37879;52.986;6.282;2023-01-25T09:27:23;-0.60;99.90
51825;DHT22;37879;52.986;6.282;2023-01-25T09:29:48;-0.50;99.90
51825;DHT22;37879;52.986;6.282;2023-01-25T09:32:14;-0.40;99.90
51825;DHT22;37879;52.986;6.282;2023-01-25T09:34:40;-0.40;99.90
51825;DHT22;37879;52.986;6.282;2023-01-25T09:37:05;-0.30;99.90
51825;DHT22;37879;52.986;6.282;2023-01-25T09:39:31;-0.20;99.90
51825;DHT22;37879;52.986;6.282;2023-01-25T09:42:29;-0.20;99.90
51825;DHT22;37879;52.986;6.282;2023-01-25T09:45:11;-0.20;99.90
51825;DHT22;37879;52.986;6.282;2023-01-25T09:48:16;-0.20;99.90
51825;DHT22;37879;52.986;6.282;2023-01-25T09:50:34;-1.70;99.90
51825;DHT22;37879;52.986;6.282;2023-01-25T09:53:41;-0.30;99.90
51825;DHT22;37879;52.986;6.282;2023-01-25T09:56:11;-0.30;99.90
51825;DHT22;37879;52.986;6.282;2023-01-25T09:58:42;0.50;99.90
51825;DHT22;37879;52.986;6.282;2023-01-25T10:03:57;-0.50;99.90
51825;DHT22;37879;52.986;6.282;2023-01-25T10:06:36;-0.40;99.90
51825;DHT22;37879;52.986;6.282;2023-01-25T10:11:44;-0.40;99.90
51825;DHT22;37879;52.986;6.282;2023-01-25T10:14:15;-0.40;99.90
51825;DHT22;37879;52.986;6.282;2023-01-25T10:19:37;-0.40;99.90
51825;DHT22;37879;52.986;6.282;2023-01-25T10:22:19;-0.30;99.90
51825;DHT22;37879;52.986;6.282;2023-01-25T10:24:56;-0.20;99.90
51825;DHT22;37879;52.986;6.282;2023-01-25T10:31:15;-0.10;99.90
51825;DHT22;37879;52.986;6.282;2023-01-25T10:33:44;0.00;99.90
51825;DHT22;37879;52.986;6.282;2023-01-25T10:36:15;0.10;99.90
51825;DHT22;37879;52.986;6.282;2023-01-25T10:38:44;0.00;99.90
51825;DHT22;37879;52.986;6.282;2023-01-25T10:41:19;1.30;99.90
51825;DHT22;37879;52.986;6.282;2023-01-25T10:43:45;-0.10;99.90
51825;DHT22;37879;52.986;6.282;2023-01-25T10:46:20;-0.10;99.90
51825;DHT22;37879;52.986;6.282;2023-01-25T10:48:47;-0.10;99.90
51825;DHT22;37879;52.986;6.282;2023-01-25T10:51:42;-0.20;99.90
51825;DHT22;37879;52.986;6.282;2023-01-25T10:54:14;-0.20;99.90
51825;DHT22;37879;52.986;6.282;2023-01-25T10:56:41;-0.20;99.90
51825;DHT22;37879;52.986;6.282;2023-01-25T10:59:14;-0.10;99.90
51825;DHT22;37879;52.986;6.282;2023-01-25T11:01:42;0.80;99.90
51825;DHT22;37879;52.986;6.282;2023-01-25T11:04:30;0.00;99.90
51825;DHT22;37879;52.986;6.282;2023-01-25T11:06:57;-0.90;99.90
51825;DHT22;37879;52.986;6.282;2023-01-25T11:09:37;0.10;99.90
51825;DHT22;37879;52.986;6.282;2023-01-25T11:12:16;-1.10;99.90
51825;DHT22;37879;52.986;6.282;2023-01-25T11:14:43;0.10;99.90
51825;DHT22;37879;52.986;6.282;2023-01-25T11:17:25;0.10;99.90
51825;DHT22;37879;52.986;6.282;2023-01-25T11:20:14;0.20;99.90
51825;DHT22;37879;52.986;6.282;2023-01-25T11:22:52;0.20;99.90
51825;DHT22;37879;52.986;6.282;2023-01-25T11:27:49;0.30;99.90
51825;DHT22;37879;52.986;6.282;2023-01-25T11:30:16;0.50;99.90
51825;DHT22;37879;52.986;6.282;2023-01-25T11:32:45;0.50;99.90
51825;DHT22;37879;52.986;6.282;2023-01-25T11:35:17;0.50;99.90
51825;DHT22;37879;52.986;6.282;2023-01-25T11:43:37;0.50;99.90
51825;DHT22;37879;52.986;6.282;2023-01-25T11:54:28;1.70;99.90
51825;DHT22;37879;52.986;6.282;2023-01-25T12:05:58;0.40;99.90
51825;DHT22;37879;52.986;6.282;2023-01-25T12:11:05;0.50;99.90
51825;DHT22;37879;52.986;6.282;2023-01-25T12:13:57;0.60;99.90
51825;DHT22;37879;52.986;6.282;2023-01-25T12:16:39;0.60;99.90
51825;DHT22;37879;52.986;6.282;2023-01-25T12:33:08;0.80;99.90
51825;DHT22;37879;52.986;6.282;2023-01-25T12:35:39;1.00;99.90
51825;DHT22;37879;52.986;6.282;2023-01-25T12:38:13;0.80;99.90
51825;DHT22;37879;52.986;6.282;2023-01-25T12:43:43;0.80;99.90
51825;DHT22;37879;52.986;6.282;2023-01-25T12:46:25;0.70;99.90
51825;DHT22;37879;52.986;6.282;2023-01-25T12:48:55;0.70;99.90
51825;DHT22;37879;52.986;6.282;2023-01-25T12:51:27;0.60;99.90
51825;DHT22;37879;52.986;6.282;2023-01-25T12:53:54;0.60;99.90
51825;DHT22;37879;52.986;6.282;2023-01-25T12:56:45;0.60;99.90
51825;DHT22;37879;52.986;6.282;2023-01-25T12:59:30;0.60;99.90
51825;DHT22;37879;52.986;6.282;2023-01-25T13:12:10;0.60;99.90
51825;DHT22;37879;52.986;6.282;2023-01-25T13:14:39;0.60;99.90
51825;DHT22;37879;52.986;6.282;2023-01-25T13:17:29;0.60;99.90
51825;DHT22;37879;52.986;6.282;2023-01-25T13:22:59;0.60;99.90
51825;DHT22;37879;52.986;6.282;2023-01-25T13:25:25;0.60;99.90
51825;DHT22;37879;52.986;6.282;2023-01-25T13:27:52;0.70;99.90
51825;DHT22;37879;52.986;6.282;2023-01-25T13:30:50;0.80;99.90
51825;DHT22;37879;52.986;6.282;2023-01-25T13:33:32;0.80;99.90
51825;DHT22;37879;52.986;6.282;2023-01-25T13:36:35;0.90;99.90
51825;DHT22;37879;52.986;6.282;2023-01-25T13:44:25;0.70;99.90
51825;DHT22;37879;52.986;6.282;2023-01-25T13:46:54;0.60;99.90
51825;DHT22;37879;52.986;6.282;2023-01-25T13:49:25;0.60;99.90
51825;DHT22;37879;52.986;6.282;2023-01-25T13:51:51;0.50;99.90
51825;DHT22;37879;52.986;6.282;2023-01-25T13:54:17;0.40;99.90
51825;DHT22;37879;52.986;6.282;2023-01-25T13:56:43;0.40;99.90
51825;DHT22;37879;52.986;6.282;2023-01-25T13:59:26;1.30;99.90
51825;DHT22;37879;52.986;6.282;2023-01-25T14:01:51;0.40;99.90
51825;DHT22;37879;52.986;6.282;2023-01-25T14:04:17;0.40;99.90
51825;DHT22;37879;52.986;6.282;2023-01-25T14:06:44;0.40;99.90
51825;DHT22;37879;52.986;6.282;2023-01-25T14:09:15;0.40;99.90
51825;DHT22;37879;52.986;6.282;2023-01-25T14:11:51;0.30;99.90
51825;DHT22;37879;52.986;6.282;2023-01-25T14:14:25;0.30;99.90
51825;DHT22;37879;52.986;6.282;2023-01-25T14:17:16;0.30;99.90
51825;DHT22;37879;52.986;6.282;2023-01-25T14:19:47;0.20;99.90
51825;DHT22;37879;52.986;6.282;2023-01-25T14:22:25;0.30;99.90
51825;DHT22;37879;52.986;6.282;2023-01-25T14:30:30;0.30;99.90
51825;DHT22;37879;52.986;6.282;2023-01-25T14:33:01;0.40;99.90
51825;DHT22;37879;52.986;6.282;2023-01-25T14:35:42;0.40;99.90
51825;DHT22;37879;52.986;6.282;2023-01-25T14:38:36;0.40;99.90
51825;DHT22;37879;52.986;6.282;2023-01-25T14:43:27;0.40;99.90
51825;DHT22;37879;52.986;6.282;2023-01-25T14:45:54;0.30;99.90
51825;DHT22;37879;52.986;6.282;2023-01-25T14:48:36;0.30;99.90
51825;DHT22;37879;52.986;6.282;2023-01-25T14:51:11;0.30;99.90
51825;DHT22;37879;52.986;6.282;2023-01-25T14:53:45;0.20;99.90
51825;DHT22;37879;52.986;6.282;2023-01-25T14:56:25;0.20;99.90
51825;DHT22;37879;52.986;6.282;2023-01-25T14:58:52;0.20;99.90
51825;DHT22;37879;52.986;6.282;2023-01-25T15:01:32;0.20;99.90
51825;DHT22;37879;52.986;6.282;2023-01-25T15:04:01;0.30;99.90
51825;DHT22;37879;52.986;6.282;2023-01-25T15:06:26;0.30;99.90
51825;DHT22;37879;52.986;6.282;2023-01-25T15:08:52;0.30;99.90
51825;DHT22;37879;52.986;6.282;2023-01-25T15:14:18;0.30;99.90
51825;DHT22;37879;52.986;6.282;2023-01-25T15:16:44;0.10;99.90
51825;DHT22;37879;52.986;6.282;2023-01-25T15:19:25;0.10;99.90
51825;DHT22;37879;52.986;6.282;2023-01-25T15:21:50;0.10;99.90
51825;DHT22;37879;52.986;6.282;2023-01-25T15:24:18;0.10;99.90
51825;DHT22;37879;52.986;6.282;2023-01-25T15:26:48;0.10;99.90
51825;DHT22;37879;52.986;6.282;2023-01-25T15:29:17;-0.20;99.90
51825;DHT22;37879;52.986;6.282;2023-01-25T15:31:47;0.10;99.90
51825;DHT22;37879;52.986;6.282;2023-01-25T15:34:22;0.20;99.90
51825;DHT22;37879;52.986;6.282;2023-01-25T15:36:48;0.20;99.90
51825;DHT22;37879;52.986;6.282;2023-01-25T15:39:17;1.50;99.90
51825;DHT22;37879;52.986;6.282;2023-01-25T15:41:43;0.70;99.90
51825;DHT22;37879;52.986;6.282;2023-01-25T15:44:09;0.20;99.90
51825;DHT22;37879;52.986;6.282;2023-01-25T15:46:38;0.10;99.90
51825;DHT22;37879;52.986;6.282;2023-01-25T15:49:06;0.10;99.90
51825;DHT22;37879;52.986;6.282;2023-01-25T15:51:32;0.00;99.90
51825;DHT22;37879;52.986;6.282;2023-01-25T15:53:58;0.00;99.90
51825;DHT22;37879;52.986;6.282;2023-01-25T15:56:27;-1.20;99.90
51825;DHT22;37879;52.986;6.282;2023-01-25T15:58:56;0.00;99.90
51825;DHT22;37879;52.986;6.282;2023-01-25T16:01:23;-1.30;99.90
51825;DHT22;37879;52.986;6.282;2023-01-25T16:03:55;0.00;99.90
51825;DHT22;37879;52.986;6.282;2023-01-25T16:08:49;-0.20;99.90
51825;DHT22;37879;52.986;6.282;2023-01-25T16:13:41;-0.10;99.90
51825;DHT22;37879;52.986;6.282;2023-01-25T16:16:19;-0.20;99.90
51825;DHT22;37879;52.986;6.282;2023-01-25T16:18:45;-0.20;99.90
51825;DHT22;37879;52.986;6.282;2023-01-25T16:21:11;-0.20;99.90
51825;DHT22;37879;52.986;6.282;2023-01-25T16:23:37;-1.20;99.90
51825;DHT22;37879;52.986;6.282;2023-01-25T16:26:03;-0.20;99.90
51825;DHT22;37879;52.986;6.282;2023-01-25T16:28:29;-0.10;99.90
51825;DHT22;37879;52.986;6.282;2023-01-25T16:30:55;-0.10;99.90
51825;DHT22;37879;52.986;6.282;2023-01-25T16:33:22;0.00;99.90
51825;DHT22;37879;52.986;6.282;2023-01-25T16:36:13;-0.10;99.90
51825;DHT22;37879;52.986;6.282;2023-01-25T16:38:39;-0.10;99.90
51825;DHT22;37879;52.986;6.282;2023-01-25T16:41:05;-0.10;99.90
51825;DHT22;37879;52.986;6.282;2023-01-25T16:43:30;-0.10;99.90
51825;DHT22;37879;52.986;6.282;2023-01-25T16:45:57;-0.10;99.90
51825;DHT22;37879;52.986;6.282;2023-01-25T16:48:23;-1.10;99.90
51825;DHT22;37879;52.986;6.282;2023-01-25T16:50:50;-0.20;99.90
51825;DHT22;37879;52.986;6.282;2023-01-25T16:53:16;-0.10;99.90
51825;DHT22;37879;52.986;6.282;2023-01-25T16:55:41;0.70;99.90
51825;DHT22;37879;52.986;6.282;2023-01-25T16:58:07;-0.20;99.90
51825;DHT22;37879;52.986;6.282;2023-01-25T17:00:33;-1.40;99.90
51825;DHT22;37879;52.986;6.282;2023-01-25T17:02:59;-0.20;99.90
51825;DHT22;37879;52.986;6.282;2023-01-25T17:05:26;-0.30;99.90
51825;DHT22;37879;52.986;6.282;2023-01-25T17:07:55;-0.30;99.90
51825;DHT22;37879;52.986;6.282;2023-01-25T17:10:22;-0.20;99.90
51825;DHT22;37879;52.986;6.282;2023-01-25T17:12:48;-0.30;99.90
51825;DHT22;37879;52.986;6.282;2023-01-25T17:15:14;-0.40;99.90
51825;DHT22;37879;52.986;6.282;2023-01-25T17:17:44;-0.20;99.90
51825;DHT22;37879;52.986;6.282;2023-01-25T17:20:10;-0.10;99.90
51825;DHT22;37879;52.986;6.282;2023-01-25T17:22:36;-0.20;99.90
51825;DHT22;37879;52.986;6.282;2023-01-25T17:25:03;-0.10;99.90
51825;DHT22;37879;52.986;6.282;2023-01-25T17:27:29;-0.10;99.90
51825;DHT22;37879;52.986;6.282;2023-01-25T17:29:55;1.70;99.90
51825;DHT22;37879;52.986;6.282;2023-01-25T17:32:20;-0.20;99.90
51825;DHT22;37879;52.986;6.282;2023-01-25T17:34:46;-0.10;99.90
51825;DHT22;37879;52.986;6.282;2023-01-25T17:37:11;-0.40;99.90
51825;DHT22;37879;52.986;6.282;2023-01-25T17:39:37;-0.10;99.90